Página principal
METAR-TAF:

METAR-TAF

Aeroportos :

Gibraltar, Gibraltar

Aeroporto de Gibraltar

latitude: 36-09N, longitude: 005-21W, altura: 5 m

Observação actual do tempo

O boletim foi feito há 41 minutos, às 12:50 UTC
Vento 14 kt de oeste
Temperatura 19°C
Humidade 26%
Pressão 1006 hPa
Visibilidade 10 km ou mais
Poucas nuvensa uma altura de 3000 ft

METAR: LXGB 211250Z 27014KT 9999 FEW030 19/M01 Q1006 NOSIG

Hora: 14:31 (13:31 UTC)

Previsão

O boletim foi feito há 1 hora e 1 minutos, às 12:30 UTC
Previsão válida de 21 às 12 UTC a 21 às 21 UTC
Vento 12 kt de oeste
Visibilidade 10 km ou mais
Poucas nuvensa uma altura de 4500 ft
Temporariamente
de 21 às 12 UTC a 21 às 19 UTC
Vento 15 kt de oeste com rajadas de 25 kt

TAF: LXGB 211230Z 2112/2121 27012KT 9999 FEW045 TEMPO 2112/2119 28015G25KT

Observações e previsões do tempo de mais de 4000 aeroportos (mensagens METAR e TAF).

As estações disponíveis são os pontos amarelos e vermelhos sobre o mapa.

Mova o rato sobre o mapa para ver o nome da estação.

Depois clique no ponto para visualizar as observações e previsões meteorológicas.

Para alterar o mapa : clique nos botões verdes com uma cruz preta para aumentar o zoom; no botão verde com uma pitada de zoom; ou nas setas verdes para mapas adjacentes.


METAR-TAF: